Ice — ZCOE9 — position and weather

sailwx.info

Track history (hours):
 
Tides and Currents Weather Stations Pressure Air Temp Water Temp Dewpoint Dewpoint Depression Visibility Wind Speed Wind Dir Waves Ship Positions

Ice

Last reported at 2014-Nov-29 00:25 UTC. Time now 2014-Nov-29 01:19 UTC.
Position N 53°10' E 008°35'.

Length 90 m; draft 5 m.

Type: Other ship. MMSI: 319411000.

Date/timePositionNaut miles runAvg speedWind from/ knotsBaromVisibWave heightAir tempDewpointWater temp
2014-Nov-29 00:25N 53°10' E 008°35'0 0.0
2014-Nov-28 22:23N 53°10' E 008°35'0 0.0
2014-Nov-28 21:33N 53°10' E 008°35'0 0.0
2014-Nov-28 20:33N 53°10' E 008°35'0 0.0
2014-Nov-28 19:31N 53°10' E 008°35'0 0.0
2014-Nov-28 18:32N 53°10' E 008°35'0 0.0
2014-Nov-28 17:33N 53°10' E 008°35'0 0.0
2014-Nov-28 16:33N 53°10' E 008°35'0 0.0
2014-Nov-28 15:31N 53°10' E 008°35'0 0.0
2014-Nov-28 14:31N 53°10' E 008°35'0 0.0
2014-Nov-28 13:29N 53°10' E 008°35'0 0.0
2014-Nov-28 12:33N 53°10' E 008°35'0 0.0
2014-Nov-28 11:33N 53°10' E 008°35'0 0.0
2014-Nov-28 10:31N 53°10' E 008°35'  
2014-Nov-25 18:33N 53°11' E 008°32'1110.6
2014-Nov-25 17:33N 53°22' E 008°30'9 9.4
2014-Nov-25 16:33N 53°31' E 008°33'1111.4
2014-Nov-25 15:33N 53°41' E 008°22'1413.9
2014-Nov-25 14:33N 53°51' E 008°07'8 8.2
2014-Nov-25 13:33N 53°57' E 007°57'5 5.2
2014-Nov-25 12:33N 53°52' E 007°55'1515.1
2014-Nov-25 11:33N 53°44' E 008°16'1312.8
2014-Nov-25 10:33N 53°35' E 008°32'8 7.6
2014-Nov-25 09:33N 53°27' E 008°30'10 9.5
2014-Nov-25 08:33N 53°18' E 008°30'8 8.2
2014-Nov-25 07:33N 53°10' E 008°35'0 0.1
2014-Nov-25 04:14N 53°10' E 008°35'0 0.0
2014-Nov-25 03:33N 53°10' E 008°35'0 0.0
2014-Nov-25 02:33N 53°10' E 008°35'0 0.0
2014-Nov-25 01:31N 53°10' E 008°35'0 0.0
2014-Nov-25 00:32N 53°10' E 008°35'0 0.0
2014-Nov-24 23:32N 53°10' E 008°35'0 0.0
2014-Nov-24 22:33N 53°10' E 008°35'0 0.0
2014-Nov-24 21:31N 53°10' E 008°35'0 0.0
2014-Nov-24 20:31N 53°10' E 008°35'0 0.0
2014-Nov-24 19:32N 53°10' E 008°35'0 0.0
2014-Nov-24 18:33N 53°10' E 008°35'0 0.0
2014-Nov-24 17:33N 53°10' E 008°35'0 0.0
2014-Nov-24 16:31N 53°10' E 008°35'0 0.0
2014-Nov-24 15:32N 53°10' E 008°35'0 0.0
2014-Nov-24 14:32N 53°10' E 008°35'0 0.0
2014-Nov-24 13:33N 53°10' E 008°35'0 0.0
2014-Nov-24 12:31N 53°10' E 008°35'0 0.0
2014-Nov-24 11:31N 53°10' E 008°35'0 0.0
2014-Nov-24 10:32N 53°10' E 008°35'0 0.0
2014-Nov-24 09:33N 53°10' E 008°35'0 0.0
2014-Nov-24 08:33N 53°10' E 008°35'0 0.0
2014-Nov-24 07:31N 53°10' E 008°35'0 0.0
2014-Nov-24 06:32N 53°10' E 008°35'0 0.0
2014-Nov-24 05:32N 53°10' E 008°35'0 0.0
2014-Nov-24 04:33N 53°10' E 008°35'0 0.0
2014-Nov-24 03:31N 53°10' E 008°35'0 0.0
2014-Nov-24 02:31N 53°10' E 008°35'0 0.0
2014-Nov-24 01:32N 53°10' E 008°35'0 0.0
2014-Nov-24 00:33N 53°10' E 008°35'0 0.0
2014-Nov-23 23:33N 53°10' E 008°35'0 0.0
2014-Nov-23 22:31N 53°10' E 008°35'0 0.0
2014-Nov-23 21:32N 53°10' E 008°35'0 0.0
2014-Nov-23 20:29N 53°10' E 008°35'0 0.0
2014-Nov-23 19:30N 53°10' E 008°35'0 0.0
2014-Nov-23 18:31N 53°10' E 008°35'0 0.0
2014-Nov-23 17:31N 53°10' E 008°35'0 0.0
2014-Nov-23 16:32N 53°10' E 008°35'0 0.0
2014-Nov-23 15:33N 53°10' E 008°35'0 0.0
2014-Nov-23 14:33N 53°10' E 008°35'0 0.0
2014-Nov-23 13:31N 53°10' E 008°35'0 0.0
2014-Nov-23 12:32N 53°10' E 008°35'0 0.0
2014-Nov-23 11:32N 53°10' E 008°35'0 0.0
2014-Nov-23 10:33N 53°10' E 008°35'0 0.0
2014-Nov-23 09:31N 53°10' E 008°35'0 0.0
2014-Nov-23 08:31N 53°10' E 008°35'0 0.0
2014-Nov-23 07:32N 53°10' E 008°35'0 0.0
2014-Nov-23 06:33N 53°10' E 008°35'0 0.0
2014-Nov-23 05:33N 53°10' E 008°35'0 0.0
2014-Nov-23 04:31N 53°10' E 008°35'0 0.0
2014-Nov-23 03:32N 53°10' E 008°35'0 0.0
2014-Nov-23 02:32N 53°10' E 008°35'0 0.0
2014-Nov-23 01:33N 53°10' E 008°35'0 0.0
2014-Nov-23 00:31N 53°10' E 008°35'0 0.0
2014-Nov-22 23:31N 53°10' E 008°35'0 0.0
2014-Nov-22 22:32N 53°10' E 008°35'0 0.0
2014-Nov-22 21:33N 53°10' E 008°35'0 0.0
2014-Nov-22 20:33N 53°10' E 008°35'0 0.0
2014-Nov-22 19:31N 53°10' E 008°35'0 0.0
2014-Nov-22 18:32N 53°10' E 008°35'0 0.0
2014-Nov-22 17:23N 53°10' E 008°35'0 0.0
2014-Nov-22 16:33N 53°10' E 008°35'0 0.0
2014-Nov-22 15:31N 53°10' E 008°35'0 0.0
2014-Nov-22 14:31N 53°10' E 008°35'0 0.0
2014-Nov-22 13:32N 53°10' E 008°35'0 0.0
2014-Nov-22 12:33N 53°10' E 008°35'0 0.0
2014-Nov-22 11:33N 53°10' E 008°35'0 0.0
2014-Nov-22 10:31N 53°10' E 008°35'0 0.0
2014-Nov-22 09:32N 53°10' E 008°35'0 0.0
2014-Nov-22 08:32N 53°10' E 008°35'0 0.0
2014-Nov-22 07:30N 53°10' E 008°35'0 0.0
2014-Nov-22 06:31N 53°10' E 008°35'0 0.0
2014-Nov-22 05:31N 53°10' E 008°35'0 0.0
2014-Nov-22 04:32N 53°10' E 008°35'0 0.0
2014-Nov-22 03:33N 53°10' E 008°35'0 0.0
2014-Nov-22 02:33N 53°10' E 008°35'0 0.0
2014-Nov-22 01:31N 53°10' E 008°35'0 0.0
2014-Nov-22 00:32N 53°10' E 008°35'0 0.0
2014-Nov-21 23:32N 53°10' E 008°35'0 0.0
2014-Nov-21 22:33N 53°10' E 008°35'0 0.0
2014-Nov-21 21:31N 53°10' E 008°35'0 0.0
2014-Nov-21 20:31N 53°10' E 008°35'0 0.0
2014-Nov-21 19:32N 53°10' E 008°35'0 0.0
2014-Nov-21 18:33N 53°10' E 008°35'0 0.0
2014-Nov-21 17:33N 53°10' E 008°35'0 0.0
2014-Nov-21 16:31N 53°10' E 008°35'0 0.0
2014-Nov-21 15:32N 53°10' E 008°35'0 0.0
2014-Nov-21 14:32N 53°10' E 008°35'0 0.0
2014-Nov-21 13:33N 53°10' E 008°35'0 0.0
2014-Nov-21 12:34N 53°10' E 008°35'0 0.0
2014-Nov-21 11:31N 53°10' E 008°35'0 0.0
2014-Nov-21 10:32N 53°10' E 008°35'0 0.0
2014-Nov-21 09:33N 53°10' E 008°35'0 0.0
2014-Nov-21 08:33N 53°10' E 008°35'0 0.0
2014-Nov-21 07:31N 53°10' E 008°35'0 0.0
2014-Nov-21 06:29N 53°10' E 008°35'0 0.0
2014-Nov-21 05:32N 53°10' E 008°35'0 0.0
2014-Nov-21 04:33N 53°10' E 008°35'0 0.0
2014-Nov-21 03:31N 53°10' E 008°35'0 0.0
2014-Nov-21 02:25N 53°10' E 008°35'0 0.0
2014-Nov-21 01:32N 53°10' E 008°35'0 0.0
2014-Nov-21 00:32N 53°10' E 008°35'0 0.0
2014-Nov-20 23:33N 53°10' E 008°35'0 0.0
2014-Nov-20 22:31N 53°10' E 008°35'0 0.0
2014-Nov-20 21:32N 53°10' E 008°35'0 0.0
2014-Nov-20 20:32N 53°10' E 008°35'0 0.0
2014-Nov-20 19:33N 53°10' E 008°35'0 0.0
2014-Nov-20 18:33N 53°10' E 008°35'0 0.0
2014-Nov-20 17:31N 53°10' E 008°35'0 0.0
2014-Nov-20 16:32N 53°10' E 008°35'0 0.0
2014-Nov-20 15:33N 53°10' E 008°35'0 0.0
2014-Nov-20 14:33N 53°10' E 008°35'0 0.0
2014-Nov-20 13:31N 53°10' E 008°35'0 0.0
2014-Nov-20 12:33N 53°10' E 008°35'3 2.5
2014-Nov-20 11:33N 53°12' E 008°32'1211.7
2014-Nov-20 10:33N 53°23' E 008°30'1110.8
2014-Nov-20 09:33N 53°34' E 008°33'1313.1
2014-Nov-20 08:33N 53°43' E 008°17'1313.5
2014-Nov-20 07:34N 53°51' E 007°59'10 9.8
2014-Nov-20 06:33N 53°53' E 007°42'60 8.4
2014-Nov-19 23:27N 53°41' E 006°03'8 8.8
2014-Nov-19 22:33N 53°39' E 005°51'9 8.8
2014-Nov-19 21:33N 53°36' E 005°36'9 8.9
2014-Nov-19 20:33N 53°33' E 005°22'9 8.7
2014-Nov-19 19:33N 53°30' E 005°08'1010.4
2014-Nov-19 18:33N 53°26' E 004°52'14412.0
2014-Nov-19 06:33N 51°35' E 002°23'1212.1
2014-Nov-19 05:33N 51°25' E 002°11'1212.1
2014-Nov-19 04:34N 51°14' E 002°03'1211.7
2014-Nov-19 03:33N 51°09' E 001°47'1211.7
2014-Nov-19 02:33N 51°00' E 001°34'  
Track history (hours):
 
Tides and Currents Weather Stations Pressure Air Temp Water Temp Dewpoint Dewpoint Depression Visibility Wind Speed Wind Dir Waves Ship Positions

Ice

Last reported at 2014-Nov-29 00:25 UTC. Time now 2014-Nov-29 01:19 UTC.
Position N 53°10' E 008°35'.

Length 90 m; draft 5 m.

Type: Other ship. MMSI: 319411000.

Date/timePositionNaut miles runAvg speedWind from/ knotsBaromVisibWave heightAir tempDewpointWater temp
2014-Nov-29 00:25N 53°10' E 008°35'0 0.0
2014-Nov-28 22:23N 53°10' E 008°35'0 0.0
2014-Nov-28 21:33N 53°10' E 008°35'0 0.0
2014-Nov-28 20:33N 53°10' E 008°35'0 0.0
2014-Nov-28 19:31N 53°10' E 008°35'0 0.0
2014-Nov-28 18:32N 53°10' E 008°35'0 0.0
2014-Nov-28 17:33N 53°10' E 008°35'0 0.0
2014-Nov-28 16:33N 53°10' E 008°35'0 0.0
2014-Nov-28 15:31N 53°10' E 008°35'0 0.0
2014-Nov-28 14:31N 53°10' E 008°35'0 0.0
2014-Nov-28 13:29N 53°10' E 008°35'0 0.0
2014-Nov-28 12:33N 53°10' E 008°35'0 0.0
2014-Nov-28 11:33N 53°10' E 008°35'0 0.0
2014-Nov-28 10:31N 53°10' E 008°35'  
2014-Nov-25 18:33N 53°11' E 008°32'1110.6
2014-Nov-25 17:33N 53°22' E 008°30'9 9.4
2014-Nov-25 16:33N 53°31' E 008°33'1111.4
2014-Nov-25 15:33N 53°41' E 008°22'1413.9
2014-Nov-25 14:33N 53°51' E 008°07'8 8.2
2014-Nov-25 13:33N 53°57' E 007°57'5 5.2
2014-Nov-25 12:33N 53°52' E 007°55'1515.1
2014-Nov-25 11:33N 53°44' E 008°16'1312.8
2014-Nov-25 10:33N 53°35' E 008°32'8 7.6
2014-Nov-25 09:33N 53°27' E 008°30'10 9.5
2014-Nov-25 08:33N 53°18' E 008°30'8 8.2
2014-Nov-25 07:33N 53°10' E 008°35'0 0.1
2014-Nov-25 04:14N 53°10' E 008°35'0 0.0
2014-Nov-25 03:33N 53°10' E 008°35'0 0.0
2014-Nov-25 02:33N 53°10' E 008°35'0 0.0
2014-Nov-25 01:31N 53°10' E 008°35'0 0.0
2014-Nov-25 00:32N 53°10' E 008°35'0 0.0
2014-Nov-24 23:32N 53°10' E 008°35'0 0.0
2014-Nov-24 22:33N 53°10' E 008°35'0 0.0
2014-Nov-24 21:31N 53°10' E 008°35'0 0.0
2014-Nov-24 20:31N 53°10' E 008°35'0 0.0
2014-Nov-24 19:32N 53°10' E 008°35'0 0.0
2014-Nov-24 18:33N 53°10' E 008°35'0 0.0
2014-Nov-24 17:33N 53°10' E 008°35'0 0.0
2014-Nov-24 16:31N 53°10' E 008°35'0 0.0
2014-Nov-24 15:32N 53°10' E 008°35'0 0.0
2014-Nov-24 14:32N 53°10' E 008°35'0 0.0
2014-Nov-24 13:33N 53°10' E 008°35'0 0.0
2014-Nov-24 12:31N 53°10' E 008°35'0 0.0
2014-Nov-24 11:31N 53°10' E 008°35'0 0.0
2014-Nov-24 10:32N 53°10' E 008°35'0 0.0
2014-Nov-24 09:33N 53°10' E 008°35'0 0.0
2014-Nov-24 08:33N 53°10' E 008°35'0 0.0
2014-Nov-24 07:31N 53°10' E 008°35'0 0.0
2014-Nov-24 06:32N 53°10' E 008°35'0 0.0
2014-Nov-24 05:32N 53°10' E 008°35'0 0.0
2014-Nov-24 04:33N 53°10' E 008°35'0 0.0
2014-Nov-24 03:31N 53°10' E 008°35'0 0.0
2014-Nov-24 02:31N 53°10' E 008°35'0 0.0
2014-Nov-24 01:32N 53°10' E 008°35'0 0.0
2014-Nov-24 00:33N 53°10' E 008°35'0 0.0
2014-Nov-23 23:33N 53°10' E 008°35'0 0.0
2014-Nov-23 22:31N 53°10' E 008°35'0 0.0
2014-Nov-23 21:32N 53°10' E 008°35'0 0.0
2014-Nov-23 20:29N 53°10' E 008°35'0 0.0
2014-Nov-23 19:30N 53°10' E 008°35'0 0.0
2014-Nov-23 18:31N 53°10' E 008°35'0 0.0
2014-Nov-23 17:31N 53°10' E 008°35'0 0.0
2014-Nov-23 16:32N 53°10' E 008°35'0 0.0
2014-Nov-23 15:33N 53°10' E 008°35'0 0.0
2014-Nov-23 14:33N 53°10' E 008°35'0 0.0
2014-Nov-23 13:31N 53°10' E 008°35'0 0.0
2014-Nov-23 12:32N 53°10' E 008°35'0 0.0
2014-Nov-23 11:32N 53°10' E 008°35'0 0.0
2014-Nov-23 10:33N 53°10' E 008°35'0 0.0
2014-Nov-23 09:31N 53°10' E 008°35'0 0.0
2014-Nov-23 08:31N 53°10' E 008°35'0 0.0
2014-Nov-23 07:32N 53°10' E 008°35'0 0.0
2014-Nov-23 06:33N 53°10' E 008°35'0 0.0
2014-Nov-23 05:33N 53°10' E 008°35'0 0.0
2014-Nov-23 04:31N 53°10' E 008°35'0 0.0
2014-Nov-23 03:32N 53°10' E 008°35'0 0.0
2014-Nov-23 02:32N 53°10' E 008°35'0 0.0
2014-Nov-23 01:33N 53°10' E 008°35'0 0.0
2014-Nov-23 00:31N 53°10' E 008°35'0 0.0
2014-Nov-22 23:31N 53°10' E 008°35'0 0.0
2014-Nov-22 22:32N 53°10' E 008°35'0 0.0
2014-Nov-22 21:33N 53°10' E 008°35'0 0.0
2014-Nov-22 20:33N 53°10' E 008°35'0 0.0
2014-Nov-22 19:31N 53°10' E 008°35'0 0.0
2014-Nov-22 18:32N 53°10' E 008°35'0 0.0
2014-Nov-22 17:23N 53°10' E 008°35'0 0.0
2014-Nov-22 16:33N 53°10' E 008°35'0 0.0
2014-Nov-22 15:31N 53°10' E 008°35'0 0.0
2014-Nov-22 14:31N 53°10' E 008°35'0 0.0
2014-Nov-22 13:32N 53°10' E 008°35'0 0.0
2014-Nov-22 12:33N 53°10' E 008°35'0 0.0
2014-Nov-22 11:33N 53°10' E 008°35'0 0.0
2014-Nov-22 10:31N 53°10' E 008°35'0 0.0
2014-Nov-22 09:32N 53°10' E 008°35'0 0.0
2014-Nov-22 08:32N 53°10' E 008°35'0 0.0
2014-Nov-22 07:30N 53°10' E 008°35'0 0.0
2014-Nov-22 06:31N 53°10' E 008°35'0 0.0
2014-Nov-22 05:31N 53°10' E 008°35'0 0.0
2014-Nov-22 04:32N 53°10' E 008°35'0 0.0
2014-Nov-22 03:33N 53°10' E 008°35'0 0.0
2014-Nov-22 02:33N 53°10' E 008°35'0 0.0
2014-Nov-22 01:31N 53°10' E 008°35'0 0.0
2014-Nov-22 00:32N 53°10' E 008°35'0 0.0
2014-Nov-21 23:32N 53°10' E 008°35'0 0.0
2014-Nov-21 22:33N 53°10' E 008°35'0 0.0
2014-Nov-21 21:31N 53°10' E 008°35'0 0.0
2014-Nov-21 20:31N 53°10' E 008°35'0 0.0
2014-Nov-21 19:32N 53°10' E 008°35'0 0.0
2014-Nov-21 18:33N 53°10' E 008°35'0 0.0
2014-Nov-21 17:33N 53°10' E 008°35'0 0.0
2014-Nov-21 16:31N 53°10' E 008°35'0 0.0
2014-Nov-21 15:32N 53°10' E 008°35'0 0.0
2014-Nov-21 14:32N 53°10' E 008°35'0 0.0
2014-Nov-21 13:33N 53°10' E 008°35'0 0.0
2014-Nov-21 12:34N 53°10' E 008°35'0 0.0
2014-Nov-21 11:31N 53°10' E 008°35'0 0.0
2014-Nov-21 10:32N 53°10' E 008°35'0 0.0
2014-Nov-21 09:33N 53°10' E 008°35'0 0.0
2014-Nov-21 08:33N 53°10' E 008°35'0 0.0
2014-Nov-21 07:31N 53°10' E 008°35'0 0.0
2014-Nov-21 06:29N 53°10' E 008°35'0 0.0
2014-Nov-21 05:32N 53°10' E 008°35'0 0.0
2014-Nov-21 04:33N 53°10' E 008°35'0 0.0
2014-Nov-21 03:31N 53°10' E 008°35'0 0.0
2014-Nov-21 02:25N 53°10' E 008°35'0 0.0
2014-Nov-21 01:32N 53°10' E 008°35'0 0.0
2014-Nov-21 00:32N 53°10' E 008°35'0 0.0
2014-Nov-20 23:33N 53°10' E 008°35'0 0.0
2014-Nov-20 22:31N 53°10' E 008°35'0 0.0
2014-Nov-20 21:32N 53°10' E 008°35'0 0.0
2014-Nov-20 20:32N 53°10' E 008°35'0 0.0
2014-Nov-20 19:33N 53°10' E 008°35'0 0.0
2014-Nov-20 18:33N 53°10' E 008°35'0 0.0
2014-Nov-20 17:31N 53°10' E 008°35'0 0.0
2014-Nov-20 16:32N 53°10' E 008°35'0 0.0
2014-Nov-20 15:33N 53°10' E 008°35'0 0.0
2014-Nov-20 14:33N 53°10' E 008°35'0 0.0
2014-Nov-20 13:31N 53°10' E 008°35'0 0.0
2014-Nov-20 12:33N 53°10' E 008°35'3 2.5
2014-Nov-20 11:33N 53°12' E 008°32'1211.7
2014-Nov-20 10:33N 53°23' E 008°30'1110.8
2014-Nov-20 09:33N 53°34' E 008°33'1313.1
2014-Nov-20 08:33N 53°43' E 008°17'1313.5
2014-Nov-20 07:34N 53°51' E 007°59'10 9.8
2014-Nov-20 06:33N 53°53' E 007°42'60 8.4
2014-Nov-19 23:27N 53°41' E 006°03'8 8.8
2014-Nov-19 22:33N 53°39' E 005°51'9 8.8
2014-Nov-19 21:33N 53°36' E 005°36'9 8.9
2014-Nov-19 20:33N 53°33' E 005°22'9 8.7
2014-Nov-19 19:33N 53°30' E 005°08'1010.4
2014-Nov-19 18:33N 53°26' E 004°52'14412.0
2014-Nov-19 06:33N 51°35' E 002°23'1212.1
2014-Nov-19 05:33N 51°25' E 002°11'1212.1
2014-Nov-19 04:34N 51°14' E 002°03'1211.7
2014-Nov-19 03:33N 51°09' E 001°47'1211.7
2014-Nov-19 02:33N 51°00' E 001°34'  

Dump ship's entire track history